Time;durP1;ratioP1;P1;durP2;ratioP2;P2;SDS_P1;SDS_P2;PMS_P1;PMS_P2;Temp;Humidity;BMP_temperature;BMP_pressure;BME280_temperature;BME280_humidity;BME280_pressure;Samples;Min_cycle;Max_cycle;Signal;HPM_P1;HPM_P2
2021/03/05 00:01:40;;;;;;;16.23;10.00;;;;;;;2.55;83.01;101321.31;5081967;28;20212;-66
2021/03/05 00:04:06;;;;;;;15.47;10.03;;;;;;;2.53;83.39;101321.34;5082246;28;20231;-66
2021/03/05 00:06:32;;;;;;;16.50;9.23;;;;;;;2.52;83.28;101330.13;5084115;28;20224;-66
2021/03/05 00:08:59;;;;;;;19.43;10.33;;;;;;;2.50;82.75;101329.31;5089856;28;20395;-66
2021/03/05 00:11:25;;;;;;;14.20;9.73;;;;;;;2.50;83.70;101334.56;5088877;28;20208;-67
2021/03/05 00:13:51;;;;;;;14.70;9.53;;;;;;;2.50;82.85;101333.72;5085041;28;20723;-66
2021/03/05 00:16:16;;;;;;;16.33;9.70;;;;;;;2.50;83.02;101333.72;5082256;28;20260;-67
2021/03/05 00:18:42;;;;;;;17.33;10.07;;;;;;;2.49;83.35;101345.97;5081012;28;20209;-66
2021/03/05 00:21:08;;;;;;;16.63;10.07;;;;;;;2.48;83.20;101341.63;5089795;28;20237;-66
2021/03/05 00:23:34;;;;;;;16.60;10.20;;;;;;;2.48;82.80;101346.00;5082062;28;20204;-66
2021/03/05 00:26:01;;;;;;;15.03;9.03;;;;;;;2.48;82.78;101351.28;5079414;28;20269;-66
2021/03/05 00:28:27;;;;;;;14.43;9.47;;;;;;;2.47;82.54;101349.53;5084998;28;20238;-66
2021/03/05 00:30:53;;;;;;;15.97;10.43;;;;;;;2.47;83.47;101362.69;5081873;28;20205;-66
2021/03/05 00:33:19;;;;;;;15.77;9.80;;;;;;;2.45;82.58;101360.06;5091077;28;20223;-66
2021/03/05 00:35:45;;;;;;;15.40;9.50;;;;;;;2.43;82.56;101361.88;5091819;28;20208;-67
2021/03/05 00:38:11;;;;;;;17.87;10.97;;;;;;;2.43;82.43;101368.00;5079722;28;20255;-66
2021/03/05 00:40:37;;;;;;;15.73;9.73;;;;;;;2.43;82.99;101368.00;5089954;28;20628;-67
2021/03/05 00:43:04;;;;;;;14.77;9.77;;;;;;;2.43;82.96;101367.13;5074909;28;20208;-66
2021/03/05 00:45:30;;;;;;;15.83;10.93;;;;;;;2.42;82.93;101374.13;5089500;28;20200;-66
2021/03/05 00:47:57;;;;;;;14.87;9.87;;;;;;;2.41;82.44;101377.66;5086681;28;20221;-66
2021/03/05 00:50:23;;;;;;;20.90;10.70;;;;;;;2.41;82.82;101374.16;5091126;28;20212;-66
2021/03/05 00:52:50;;;;;;;16.47;10.30;;;;;;;2.43;82.46;101380.25;5083208;28;20552;-66
2021/03/05 00:55:16;;;;;;;17.30;10.97;;;;;;;2.42;82.42;101376.75;5077442;28;20263;-66
2021/03/05 00:57:42;;;;;;;15.13;9.77;;;;;;;2.41;82.82;101382.06;5083261;28;20732;-66
2021/03/05 01:00:12;;;;;;;18.17;11.00;;;;;;;2.40;82.29;101380.31;5077854;28;20290;-66
2021/03/05 01:02:38;;;;;;;17.37;9.77;;;;;;;2.38;82.29;101380.34;5077807;28;20207;-66
2021/03/05 01:05:05;;;;;;;14.23;10.20;;;;;;;2.35;82.20;101383.03;5077292;28;20201;-66
2021/03/05 01:07:31;;;;;;;17.03;10.47;;;;;;;2.34;81.96;101385.66;5089328;28;20220;-66
2021/03/05 01:09:57;;;;;;;16.03;10.93;;;;;;;2.32;82.05;101380.47;5086632;28;20235;-66
2021/03/05 01:12:24;;;;;;;16.47;10.60;;;;;;;2.32;81.76;101390.13;5081185;28;20200;-66
2021/03/05 01:14:50;;;;;;;14.17;10.47;;;;;;;2.30;82.35;101391.91;5075060;28;20297;-66
2021/03/05 01:17:16;;;;;;;17.63;10.07;;;;;;;2.25;82.42;101388.47;5078182;28;20228;-66
2021/03/05 01:19:43;;;;;;;13.53;9.53;;;;;;;2.20;81.85;101396.44;5088429;28;20208;-66
2021/03/05 01:22:09;;;;;;;16.27;10.77;;;;;;;2.18;81.74;101392.97;5077380;28;20212;-67
2021/03/05 01:24:35;;;;;;;15.63;9.83;;;;;;;2.19;81.83;101393.81;5074626;28;20208;-66
2021/03/05 01:27:01;;;;;;;15.60;9.97;;;;;;;2.17;82.19;101403.50;5087952;28;20630;-66
2021/03/05 01:29:26;;;;;;;19.20;10.40;;;;;;;2.16;81.66;101400.00;5082021;28;20209;-66
2021/03/05 01:31:53;;;;;;;16.37;9.53;;;;;;;2.16;82.34;101404.38;5077726;28;20261;-66
2021/03/05 01:34:19;;;;;;;15.80;9.53;;;;;;;2.16;81.67;101409.63;5090426;28;20591;-66
2021/03/05 01:36:45;;;;;;;16.43;9.73;;;;;;;2.15;81.51;101410.56;5090395;28;20220;-66
2021/03/05 01:39:12;;;;;;;17.07;10.47;;;;;;;2.14;81.53;101414.09;5084427;28;20266;-66
2021/03/05 01:41:38;;;;;;;13.60;9.90;;;;;;;2.14;82.06;101414.94;5087658;28;20204;-66
2021/03/05 01:44:06;;;;;;;15.33;9.70;;;;;;;2.14;81.71;101421.97;5081472;28;20258;-66
2021/03/05 01:46:32;;;;;;;15.03;9.37;;;;;;;2.11;81.80;101415.00;5087303;28;20289;-66
2021/03/05 01:48:58;;;;;;;12.63;8.30;;;;;;;2.09;82.20;101412.41;5086689;28;20211;-66
2021/03/05 01:51:28;;;;;;;10.53;7.23;;;;;;;2.11;82.26;101419.38;5088726;28;20277;-66
2021/03/05 01:53:54;;;;;;;10.23;7.23;;;;;;;2.08;81.97;101418.53;5082703;28;20710;-66
2021/03/05 01:58:48;;;;;;;11.47;6.90;;;;;;;1.99;81.75;101423.06;5058918;28;20682;-64
2021/03/05 02:01:14;;;;;;;11.77;6.77;;;;;;;1.93;81.33;101423.19;5057454;28;20833;-65
2021/03/05 02:03:40;;;;;;;8.97;6.43;;;;;;;1.88;81.78;101425.88;5057096;28;20209;-65
2021/03/05 02:06:07;;;;;;;10.10;6.87;;;;;;;1.86;81.35;101437.28;5065910;28;20215;-66
2021/03/05 02:08:34;;;;;;;12.37;6.80;;;;;;;1.85;81.37;101436.41;5065965;28;20233;-65
2021/03/05 02:11:00;;;;;;;11.83;6.90;;;;;;;1.83;81.28;101434.69;5068776;28;20200;-65
2021/03/05 02:13:26;;;;;;;10.50;6.43;;;;;;;1.80;81.24;101438.22;5059735;28;20204;-65
2021/03/05 02:15:53;;;;;;;10.13;5.37;;;;;;;1.77;81.10;101438.31;5068554;28;20628;-66
2021/03/05 02:18:26;;;;;;;11.93;5.70;;;;;;;1.75;81.38;101445.34;5068297;28;20601;-65
2021/03/05 02:21:10;;;;;;;8.83;5.47;;;;;;;1.72;80.90;101453.25;5061120;28;20209;-65
2021/03/05 02:24:30;;;;;;;8.00;4.77;;;;;;;1.66;80.97;101463.81;5068164;28;20204;-64
2021/03/05 02:27:37;;;;;;;8.00;4.13;;;;;;;1.59;80.89;101467.44;4981667;28;20228;-64
2021/03/05 02:30:31;;;;;;;7.53;4.33;;;;;;;1.54;80.73;101469.25;4925426;29;20217;-65
2021/03/05 02:33:03;;;;;;;9.00;4.20;;;;;;;1.49;80.78;101474.56;4979770;28;20208;-66
2021/03/05 02:35:32;;;;;;;7.03;3.63;;;;;;;1.45;80.62;101472.84;5043612;28;20240;-65
2021/03/05 02:38:01;;;;;;;6.50;3.53;;;;;;;1.39;80.64;101486.94;5067572;28;20228;-65
2021/03/05 02:40:30;;;;;;;6.87;3.20;;;;;;;1.34;80.71;101491.38;5069827;28;20207;-64
2021/03/05 02:42:58;;;;;;;7.17;3.40;;;;;;;1.29;80.70;101487.91;5064391;28;20204;-66
2021/03/05 02:45:27;;;;;;;6.37;2.80;;;;;;;1.27;80.65;101489.69;5069665;28;20225;-64
2021/03/05 02:47:56;;;;;;;9.30;2.80;;;;;;;1.23;80.64;101497.63;5067862;28;20253;-65
2021/03/05 02:50:27;;;;;;;8.97;3.00;;;;;;;1.18;80.33;101495.06;5069835;28;20205;-65
2021/03/05 02:52:57;;;;;;;5.33;2.70;;;;;;;1.15;80.35;101500.34;5070302;28;20205;-65
2021/03/05 02:55:25;;;;;;;7.13;3.07;;;;;;;1.14;79.81;101500.34;5071834;28;20274;-63
2021/03/05 02:57:56;;;;;;;5.47;2.57;;;;;;;1.12;80.20;101510.84;5069676;28;20224;-66
2021/03/05 03:00:24;;;;;;;4.07;2.10;;;;;;;1.11;80.17;101519.63;5062549;28;20209;-65
2021/03/05 03:02:52;;;;;;;3.97;2.07;;;;;;;1.08;80.24;101514.41;5068556;28;20260;-65
2021/03/05 03:05:19;;;;;;;5.27;2.10;;;;;;;1.05;80.03;101511.84;5064581;28;20698;-64
2021/03/05 03:07:48;;;;;;;5.73;1.83;;;;;;;1.03;79.66;101522.34;5068001;28;20248;-65
2021/03/05 03:10:14;;;;;;;6.90;2.20;;;;;;;1.00;79.88;101531.97;5069668;28;20219;-64
2021/03/05 03:12:41;;;;;;;4.17;2.03;;;;;;;0.96;79.92;101520.66;5066051;28;20198;-64
2021/03/05 03:15:10;;;;;;;3.67;2.00;;;;;;;0.93;79.91;101528.53;5064842;28;20224;-64
2021/03/05 03:17:38;;;;;;;4.70;1.90;;;;;;;0.92;79.43;101536.41;5066815;28;20568;-64
2021/03/05 03:20:06;;;;;;;4.27;1.63;;;;;;;0.89;79.60;101529.47;5070539;28;20201;-64
2021/03/05 03:22:32;;;;;;;4.80;2.00;;;;;;;0.89;79.58;101539.09;5058232;28;20209;-65
2021/03/05 03:25:02;;;;;;;5.10;1.97;;;;;;;0.88;79.53;101542.59;5069017;28;20724;-64
2021/03/05 03:27:28;;;;;;;5.13;2.23;;;;;;;0.87;79.44;101546.09;5070832;28;20227;-64
2021/03/05 03:29:54;;;;;;;3.83;1.70;;;;;;;0.85;79.37;101542.63;5065930;28;20227;-65
2021/03/05 03:32:20;;;;;;;5.30;2.10;;;;;;;0.83;79.29;101542.63;5071505;28;20204;-65
2021/03/05 03:34:47;;;;;;;4.00;1.90;;;;;;;0.84;79.43;101546.13;5071358;28;20229;-64
2021/03/05 03:37:13;;;;;;;5.40;1.80;;;;;;;0.81;79.23;101549.66;5071103;28;20245;-64
2021/03/05 03:39:40;;;;;;;5.13;2.13;;;;;;;0.81;79.15;101556.66;5063685;28;20216;-64
2021/03/05 03:42:06;;;;;;;7.43;2.27;;;;;;;0.80;79.07;101563.63;5070041;28;20200;-65
2021/03/05 03:44:32;;;;;;;4.53;2.07;;;;;;;0.83;79.25;101565.38;5063479;28;20201;-64
2021/03/05 03:47:00;;;;;;;6.10;2.10;;;;;;;0.82;79.23;101566.25;5071075;28;20250;-63
2021/03/05 03:49:30;;;;;;;6.77;2.00;;;;;;;0.81;79.02;101573.25;5071954;28;20680;-64
2021/03/05 03:52:00;;;;;;;2.83;1.90;;;;;;;0.80;78.97;101581.13;5063510;28;20197;-65
2021/03/05 03:54:27;;;;;;;6.90;2.37;;;;;;;0.80;78.91;101591.63;5070586;28;20224;-65
2021/03/05 03:56:59;;;;;;;6.00;2.30;;;;;;;0.75;78.90;101596.88;5066265;28;20229;-64
2021/03/05 03:59:26;;;;;;;7.83;2.27;;;;;;;0.73;78.71;101600.41;5069240;28;20209;-64
2021/03/05 04:01:56;;;;;;;7.10;2.10;;;;;;;0.72;78.90;101606.56;5069887;28;20263;-64
2021/03/05 04:04:25;;;;;;;5.07;2.03;;;;;;;0.69;78.55;101599.56;5070868;28;20197;-65
2021/03/05 04:06:53;;;;;;;3.70;1.90;;;;;;;0.67;78.89;101612.69;5066739;28;20226;-64
2021/03/05 04:09:19;;;;;;;4.37;2.33;;;;;;;0.65;78.86;101614.44;5066928;28;20710;-64
2021/03/05 04:11:46;;;;;;;4.83;2.13;;;;;;;0.64;78.58;101611.84;5070861;28;20205;-65
2021/03/05 04:14:13;;;;;;;2.97;1.80;;;;;;;0.60;78.83;101604.88;5064034;28;20237;-64
2021/03/05 04:16:40;;;;;;;4.37;2.03;;;;;;;0.60;78.90;101615.34;5062269;28;20725;-64
2021/03/05 04:19:06;;;;;;;7.03;2.50;;;;;;;0.59;78.85;101614.50;5071073;28;20220;-65
2021/03/05 04:21:35;;;;;;;6.90;2.17;;;;;;;0.58;78.78;101612.75;5066347;28;20229;-60
2021/03/05 04:24:01;;;;;;;5.63;1.70;;;;;;;0.58;78.60;101622.34;5062349;28;20658;-65
2021/03/05 04:26:27;;;;;;;3.40;1.90;;;;;;;0.56;78.91;101621.50;5069976;28;20216;-64
2021/03/05 04:28:53;;;;;;;3.43;1.80;;;;;;;0.53;79.02;101619.78;5070980;28;20717;-64
2021/03/05 04:31:19;;;;;;;3.87;1.80;;;;;;;0.52;78.79;101622.41;5070517;28;20208;-65
2021/03/05 04:33:46;;;;;;;4.83;2.30;;;;;;;0.51;78.68;101626.78;5069756;28;20693;-63
2021/03/05 04:36:12;;;;;;;3.17;1.80;;;;;;;0.52;78.79;101620.66;5070416;28;20208;-64
2021/03/05 04:38:38;;;;;;;4.77;1.97;;;;;;;0.51;78.94;101631.16;5064797;28;20225;-65
2021/03/05 04:41:04;;;;;;;9.10;3.20;;;;;;;0.49;78.79;101628.56;5065169;28;20213;-64
2021/03/05 04:43:30;;;;;;;2.80;1.80;;;;;;;0.48;78.71;101645.16;5066451;28;20588;-63
2021/03/05 04:45:56;;;;;;;5.80;2.00;;;;;;;0.47;78.85;101639.91;5060184;28;20201;-64
2021/03/05 04:48:22;;;;;;;3.63;1.70;;;;;;;0.46;78.68;101632.94;5063956;28;20704;-64
2021/03/05 04:50:49;;;;;;;8.50;2.30;;;;;;;0.45;78.73;101637.31;5063007;28;20208;-64
2021/03/05 04:53:15;;;;;;;4.47;2.07;;;;;;;0.44;78.73;101639.94;5071407;28;20677;-64
2021/03/05 04:55:40;;;;;;;5.03;2.17;;;;;;;0.41;78.47;101639.94;5061961;28;20225;-64
2021/03/05 04:58:07;;;;;;;4.50;2.20;;;;;;;0.38;78.55;101632.97;5063888;28;20320;-64
2021/03/05 05:00:33;;;;;;;7.47;2.17;;;;;;;0.36;78.62;101641.75;5067318;28;20209;-64
2021/03/05 05:02:59;;;;;;;4.40;2.33;;;;;;;0.31;78.71;101649.63;5060647;28;20271;-65
2021/03/05 05:05:25;;;;;;;5.60;2.10;;;;;;;0.28;78.37;101654.88;5066816;28;20570;-63
2021/03/05 05:07:54;;;;;;;6.10;2.20;;;;;;;0.24;78.49;101653.13;5067462;28;20228;-64
2021/03/05 05:10:20;;;;;;;5.47;2.43;;;;;;;0.19;78.30;101657.53;5068887;28;20208;-64
2021/03/05 05:12:46;;;;;;;4.53;2.07;;;;;;;0.17;78.70;101660.19;5060612;28;20743;-63
2021/03/05 05:15:12;;;;;;;5.30;2.00;;;;;;;0.15;78.67;101668.91;5061652;28;20293;-63
2021/03/05 05:17:38;;;;;;;4.93;2.40;;;;;;;0.13;78.46;101673.28;5065496;28;20225;-64
2021/03/05 05:20:07;;;;;;;2.80;1.90;;;;;;;0.10;78.32;101670.69;5068479;28;20291;-63
2021/03/05 05:22:34;;;;;;;4.90;2.63;;;;;;;0.08;78.57;101669.81;5071419;28;20730;-64
2021/03/05 05:25:01;;;;;;;4.20;2.20;;;;;;;0.04;78.44;101668.06;5071973;28;20204;-63
2021/03/05 05:27:28;;;;;;;3.90;2.60;;;;;;;0.03;78.62;101674.19;5064517;28;20224;-64
2021/03/05 05:29:53;;;;;;;5.23;2.20;;;;;;;0.00;78.49;101680.34;5063720;28;20220;-65
2021/03/05 05:32:19;;;;;;;6.10;2.50;;;;;;;-0.03;78.59;101685.56;5069096;28;20204;-64
2021/03/05 05:34:45;;;;;;;6.30;2.50;;;;;;;-0.07;78.37;101684.72;5068923;28;20227;-64
2021/03/05 05:37:12;;;;;;;3.53;2.17;;;;;;;-0.11;78.68;101693.44;5065339;28;20256;-64
2021/03/05 05:39:38;;;;;;;4.93;1.90;;;;;;;-0.14;78.83;101692.56;5062071;28;20216;-63
2021/03/05 05:42:06;;;;;;;3.63;1.90;;;;;;;-0.17;78.60;101700.44;5066266;28;20208;-61
2021/03/05 05:44:33;;;;;;;5.23;2.40;;;;;;;-0.19;78.64;101704.81;5068417;28;20204;-64
2021/03/05 05:47:00;;;;;;;3.27;1.93;;;;;;;-0.22;78.74;101707.44;5069051;28;20213;-63
2021/03/05 05:49:27;;;;;;;4.60;2.00;;;;;;;-0.27;78.55;101712.69;5065332;28;20250;-63
2021/03/05 05:51:58;;;;;;;4.67;2.17;;;;;;;-0.29;78.68;101724.91;5068073;28;20270;-63
2021/03/05 05:54:24;;;;;;;4.53;2.77;;;;;;;-0.30;78.82;101722.28;5066952;28;20232;-62
2021/03/05 05:56:51;;;;;;;4.50;2.40;;;;;;;-0.31;78.51;101721.41;5066489;28;20767;-63
2021/03/05 05:59:18;;;;;;;6.77;2.60;;;;;;;-0.33;79.14;101728.38;5065514;28;20662;-64
2021/03/05 06:01:45;;;;;;;5.00;2.93;;;;;;;-0.33;79.05;101724.91;5069399;28;20208;-64
2021/03/05 06:04:15;;;;;;;5.33;2.43;;;;;;;-0.36;78.88;101734.50;5066226;28;20197;-64
2021/03/05 06:06:41;;;;;;;8.43;3.00;;;;;;;-0.37;79.14;101737.16;5069056;28;20221;-65
2021/03/05 06:09:07;;;;;;;5.60;2.93;;;;;;;-0.39;78.98;101741.50;5073989;28;20232;-65
2021/03/05 06:11:34;;;;;;;7.23;2.70;;;;;;;-0.40;78.83;101735.41;5071329;28;20270;-63
2021/03/05 06:14:02;;;;;;;6.93;2.60;;;;;;;-0.42;79.27;101742.38;5074303;28;20204;-65
2021/03/05 06:16:29;;;;;;;7.83;3.90;;;;;;;-0.44;79.14;101741.50;5067867;28;20196;-65
2021/03/05 06:18:55;;;;;;;7.40;3.03;;;;;;;-0.46;79.05;101753.72;5073202;28;20254;-65
2021/03/05 06:21:36;;;;;;;5.87;3.00;;;;;;;-0.49;79.22;101758.06;5072284;28;20288;-65
2021/03/05 06:24:03;;;;;;;7.20;2.60;;;;;;;-0.51;78.80;101765.91;5066887;28;20231;-65
2021/03/05 06:26:29;;;;;;;7.63;2.67;;;;;;;-0.53;79.28;101764.16;5068555;28;20287;-64
2021/03/05 06:29:03;;;;;;;6.33;3.10;;;;;;;-0.55;79.08;101773.78;5076409;28;20200;-65
2021/03/05 06:31:31;;;;;;;10.10;2.87;;;;;;;-0.57;78.99;101781.63;5072043;28;20689;-64
2021/03/05 06:33:58;;;;;;;4.67;2.73;;;;;;;-0.58;79.10;101787.75;5068902;28;20560;-68
2021/03/05 06:36:24;;;;;;;7.53;3.23;;;;;;;-0.58;78.97;101786.88;5069229;28;20259;-67
2021/03/05 06:38:50;;;;;;;4.63;2.43;;;;;;;-0.56;79.30;101795.59;5072540;28;20209;-68
2021/03/05 06:41:21;;;;;;;6.17;2.60;;;;;;;-0.56;79.47;101803.44;5067337;28;20247;-66
2021/03/05 06:43:49;;;;;;;4.50;2.40;;;;;;;-0.55;79.55;101807.81;5068610;28;20209;-69
2021/03/05 06:46:33;;;;;;;5.47;2.80;;;;;;;-0.54;79.41;101812.16;5067457;28;20212;-69
2021/03/05 06:49:01;;;;;;;7.23;2.90;;;;;;;-0.54;79.06;101818.28;5069357;28;20269;-69
2021/03/05 06:51:28;;;;;;;5.37;2.73;;;;;;;-0.54;79.38;101813.03;5072167;28;20678;-68
2021/03/05 06:54:13;;;;;;;7.17;2.87;;;;;;;-0.53;79.26;101821.72;5071455;28;20585;-68
2021/03/05 06:56:41;;;;;;;6.73;2.50;;;;;;;-0.55;79.54;101823.50;5065301;28;20229;-68
2021/03/05 06:59:09;;;;;;;7.57;2.53;;;;;;;-0.55;79.33;101829.63;5070081;28;20258;-67
2021/03/05 07:01:54;;;;;;;6.73;3.20;;;;;;;-0.54;79.60;101833.97;5069666;28;20277;-68
2021/03/05 07:04:22;;;;;;;9.17;3.43;;;;;;;-0.54;79.72;101840.94;5063302;28;20193;-69
2021/03/05 07:07:03;;;;;;;5.73;3.37;;;;;;;-0.54;79.84;101839.22;5069422;28;20220;-68
2021/03/05 07:09:31;;;;;;;9.97;4.10;;;;;;;-0.51;79.72;101848.78;5063143;28;20231;-68
2021/03/05 07:11:58;;;;;;;7.10;3.50;;;;;;;-0.51;79.47;101849.66;5067114;28;20271;-68
2021/03/05 07:14:29;;;;;;;5.97;3.13;;;;;;;-0.48;79.44;101857.50;5070966;28;20225;-67
2021/03/05 07:16:57;;;;;;;6.43;2.63;;;;;;;-0.47;79.31;101867.13;5064164;28;20221;-67
2021/03/05 07:19:25;;;;;;;7.60;2.80;;;;;;;-0.46;79.65;101868.84;5072102;28;20205;-66
2021/03/05 07:21:52;;;;;;;5.97;2.20;;;;;;;-0.46;79.80;101874.09;5070544;28;20563;-67
2021/03/05 07:24:21;;;;;;;3.67;2.27;;;;;;;-0.46;79.63;101870.59;5069918;28;20214;-67
2021/03/05 07:26:56;;;;;;;3.60;2.13;;;;;;;-0.45;79.82;101875.84;5068838;28;20231;-67
2021/03/05 07:29:24;;;;;;;5.47;2.53;;;;;;;-0.43;79.62;101879.34;5064883;28;20735;-67
2021/03/05 07:31:59;;;;;;;5.03;2.17;;;;;;;-0.41;79.68;101876.72;5068667;28;20213;-67
2021/03/05 07:34:27;;;;;;;5.30;2.30;;;;;;;-0.39;79.88;101883.72;5064792;28;20239;-67
2021/03/05 07:36:56;;;;;;;5.90;2.30;;;;;;;-0.36;79.84;101882.84;5063757;28;20221;-67
2021/03/05 07:39:25;;;;;;;4.77;2.13;;;;;;;-0.34;79.59;101883.69;5064821;28;20662;-65
2021/03/05 07:41:54;;;;;;;7.20;2.30;;;;;;;-0.28;79.68;101893.31;5065716;28;20452;-67
2021/03/05 07:44:21;;;;;;;4.03;2.67;;;;;;;-0.23;79.77;101902.03;5067655;28;20569;-67
2021/03/05 07:46:47;;;;;;;9.00;2.57;;;;;;;-0.23;79.46;101892.44;5069642;28;20229;-68
2021/03/05 07:49:15;;;;;;;4.27;2.13;;;;;;;-0.20;79.35;101896.81;5069372;28;20204;-66
2021/03/05 07:51:42;;;;;;;6.10;2.33;;;;;;;-0.18;79.58;101902.94;5066900;28;20254;-67
2021/03/05 07:54:09;;;;;;;6.53;2.70;;;;;;;-0.14;79.44;101909.91;5069692;28;20488;-67
2021/03/05 07:56:45;;;;;;;5.57;2.50;;;;;;;-0.11;79.34;101916.00;5070322;28;20249;-66
2021/03/05 07:59:46;;;;;;;6.30;2.37;;;;;;;-0.07;79.48;101915.16;5087621;22;20316;-66
2021/03/05 08:02:13;;;;;;;7.70;3.00;;;;;;;-0.03;79.51;101916.91;5060401;28;20298;-66
2021/03/05 08:05:04;;;;;;;5.07;2.10;;;;;;;0.03;79.34;101913.38;5068264;28;20197;-66
2021/03/05 08:07:32;;;;;;;7.73;3.37;;;;;;;0.09;79.38;101917.75;5067645;28;20225;-67
2021/03/05 08:09:59;;;;;;;9.43;2.97;;;;;;;0.11;79.32;101918.63;5065498;28;20208;-65
2021/03/05 08:12:37;;;;;;;6.77;2.37;;;;;;;0.13;79.34;101920.38;5066387;28;20201;-67
2021/03/05 08:15:21;;;;;;;5.53;2.83;;;;;;;0.22;79.30;101924.72;5070905;28;20569;-66
2021/03/05 08:17:48;;;;;;;7.53;3.60;;;;;;;0.28;79.08;101920.38;5069427;28;20229;-66
2021/03/05 08:20:49;;;;;;;5.80;2.80;;;;;;;0.32;78.97;101924.75;5066981;28;20213;-66
2021/03/05 08:23:16;;;;;;;7.70;3.23;;;;;;;0.38;78.85;101925.59;5068083;28;20697;-67
2021/03/05 08:25:57;;;;;;;8.53;4.70;;;;;;;0.44;78.86;101933.47;5068818;28;20293;-66
2021/03/05 08:28:42;;;;;;;8.50;4.40;;;;;;;0.47;78.53;101936.06;5069697;28;20228;-66
2021/03/05 08:31:33;;;;;;;7.97;4.10;;;;;;;0.48;78.33;101938.69;5069557;28;20201;-66
2021/03/05 08:34:24;;;;;;;8.27;4.33;;;;;;;0.52;78.23;101943.06;5067742;28;20201;-66
2021/03/05 08:36:52;;;;;;;6.97;3.80;;;;;;;0.58;78.39;101932.56;5055741;28;20228;-66
2021/03/05 08:39:29;;;;;;;8.70;3.83;;;;;;;0.64;78.17;101943.03;5067035;28;20225;-67
2021/03/05 08:42:30;;;;;;;9.00;4.97;;;;;;;0.73;78.13;101941.25;5068297;28;20670;-65
2021/03/05 08:45:16;;;;;;;9.73;5.40;;;;;;;0.81;77.90;101948.25;5068371;28;20692;-66
2021/03/05 08:47:44;;;;;;;9.10;4.47;;;;;;;0.87;78.05;101955.22;5066164;28;20225;-66
2021/03/05 08:50:13;;;;;;;13.50;5.70;;;;;;;0.93;78.01;101942.06;5066686;28;20217;-66
2021/03/05 08:52:41;;;;;;;8.83;5.17;;;;;;;0.98;77.96;101942.94;5069751;28;20227;-66
2021/03/05 08:55:08;;;;;;;14.07;5.60;;;;;;;1.04;77.56;101950.81;5078500;28;20239;-67
2021/03/05 08:57:44;;;;;;;8.23;5.43;;;;;;;1.09;77.73;101954.25;5069831;28;20229;-66
2021/03/05 09:00:14;;;;;;;9.33;4.93;;;;;;;1.15;77.87;101953.38;5066819;28;20211;-66
2021/03/05 09:02:42;;;;;;;15.70;5.97;;;;;;;1.21;77.44;101950.72;5069301;28;20637;-66
2021/03/05 09:05:09;;;;;;;11.13;5.10;;;;;;;1.27;77.16;101959.44;5070807;28;20205;-66
2021/03/05 09:07:47;;;;;;;7.93;5.90;;;;;;;1.34;77.07;101966.41;5074061;28;20646;-67
2021/03/05 09:10:13;;;;;;;7.27;5.07;;;;;;;1.39;76.66;101963.78;5072054;28;20255;-66
2021/03/05 09:12:54;;;;;;;7.90;5.27;;;;;;;1.44;76.66;101959.34;5077146;28;20208;-66
2021/03/05 09:15:23;;;;;;;9.10;5.43;;;;;;;1.49;76.51;101956.72;5072390;28;20251;-67
2021/03/05 09:17:49;;;;;;;9.10;6.27;;;;;;;1.54;76.43;101961.06;5068199;28;20221;-67
2021/03/05 09:20:15;;;;;;;10.27;6.40;;;;;;;1.63;76.84;101965.38;5067734;28;20198;-66
2021/03/05 09:22:41;;;;;;;9.43;6.03;;;;;;;1.67;76.04;101967.13;5069693;28;20200;-66
2021/03/05 09:25:10;;;;;;;8.60;6.13;;;;;;;1.72;76.21;101976.72;5079594;28;20586;-66
2021/03/05 09:27:39;;;;;;;9.17;6.33;;;;;;;1.78;75.61;101978.44;5071835;28;20224;-66
2021/03/05 09:30:14;;;;;;;10.80;6.07;;;;;;;1.81;75.47;101980.16;5067142;28;20215;-66
2021/03/05 09:32:48;;;;;;;7.80;6.13;;;;;;;1.83;75.39;101989.78;5068226;28;20208;-66
2021/03/05 09:35:14;;;;;;;12.37;7.53;;;;;;;1.82;75.34;101989.78;5068589;28;20229;-67
2021/03/05 09:37:41;;;;;;;12.07;7.00;;;;;;;1.84;75.23;101985.41;5064447;28;20236;-66
2021/03/05 09:40:10;;;;;;;12.60;7.60;;;;;;;1.88;75.14;101988.00;5068177;28;20662;-66
2021/03/05 09:42:47;;;;;;;7.77;6.50;;;;;;;1.89;75.07;101984.50;5064677;28;20629;-66
2021/03/05 09:45:31;;;;;;;9.33;6.47;;;;;;;1.88;74.28;101993.25;5069531;28;20196;-66
2021/03/05 09:47:57;;;;;;;11.70;7.63;;;;;;;1.98;74.75;102002.81;5069209;28;20228;-66
2021/03/05 09:50:25;;;;;;;11.50;7.33;;;;;;;2.08;74.29;102001.88;5067747;28;20250;-66
2021/03/05 09:52:51;;;;;;;14.10;7.87;;;;;;;2.20;74.30;102003.53;5071501;28;20205;-66
2021/03/05 09:55:29;;;;;;;9.57;6.73;;;;;;;2.31;74.45;102009.63;5074481;28;20228;-66
2021/03/05 09:57:55;;;;;;;10.50;6.90;;;;;;;2.40;74.16;102016.53;5069986;28;20566;-66
2021/03/05 10:00:29;;;;;;;8.20;6.43;;;;;;;2.47;73.52;102015.63;5078313;28;20204;-66
2021/03/05 10:03:06;;;;;;;8.93;7.07;;;;;;;2.53;73.32;102002.41;5072602;28;20227;-67
2021/03/05 10:05:36;;;;;;;9.30;6.23;;;;;;;2.58;72.86;102003.22;5068318;28;20298;-66
2021/03/05 10:08:26;;;;;;;13.33;7.07;;;;;;;2.56;71.81;102010.25;5067190;28;20229;-67
2021/03/05 10:10:59;;;;;;;10.87;7.80;;;;;;;2.58;72.20;102010.25;5047409;28;20644;-66
2021/03/05 10:13:42;;;;;;;9.63;6.83;;;;;;;2.69;72.29;102022.41;5066407;28;20201;-66
2021/03/05 10:16:12;;;;;;;10.33;7.50;;;;;;;2.78;71.45;102018.84;5069266;28;20225;-66
2021/03/05 10:18:38;;;;;;;9.77;7.10;;;;;;;2.91;71.67;102014.31;5072178;28;20254;-66
2021/03/05 10:21:08;;;;;;;12.20;8.57;;;;;;;3.05;72.05;102023.81;5069088;28;20682;-66
2021/03/05 10:23:34;;;;;;;10.33;7.30;;;;;;;3.19;71.47;102023.69;5070521;28;20286;-67
2021/03/05 10:26:01;;;;;;;9.43;6.50;;;;;;;3.27;71.32;102032.34;5070978;28;20197;-66
2021/03/05 10:28:28;;;;;;;10.87;7.30;;;;;;;3.29;70.24;102034.97;5072292;28;20223;-66
2021/03/05 10:30:54;;;;;;;11.60;7.13;;;;;;;3.26;69.37;102035.88;5071885;28;20205;-66
2021/03/05 10:33:37;;;;;;;11.80;8.47;;;;;;;3.30;69.26;102041.97;5074710;28;20246;-66
2021/03/05 10:36:04;;;;;;;8.87;8.03;;;;;;;3.38;69.38;102043.66;5066883;28;20228;-66
2021/03/05 10:38:30;;;;;;;11.90;7.70;;;;;;;3.49;69.46;102044.38;5070594;28;20702;-66
2021/03/05 10:40:57;;;;;;;12.47;8.63;;;;;;;3.58;68.99;102064.50;5069036;28;20212;-66
2021/03/05 10:43:23;;;;;;;10.63;8.67;;;;;;;3.68;69.22;102055.56;5073492;28;20216;-67
2021/03/05 10:45:49;;;;;;;10.30;8.20;;;;;;;3.78;68.09;102051.03;5066790;28;20692;-66
2021/03/05 10:48:15;;;;;;;7.87;6.10;;;;;;;3.86;68.10;102062.38;5066160;28;20232;-66
2021/03/05 10:50:42;;;;;;;7.00;6.13;;;;;;;3.93;67.34;102065.81;5067664;28;20268;-67
2021/03/05 10:53:08;;;;;;;9.90;6.97;;;;;;;3.95;66.85;102069.25;5063791;28;20216;-66
2021/03/05 10:55:34;;;;;;;7.93;6.30;;;;;;;4.00;67.24;102068.31;5064233;28;20233;-66
2021/03/05 10:58:00;;;;;;;8.63;7.07;;;;;;;3.99;66.50;102068.34;5067491;28;20287;-67
2021/03/05 11:00:27;;;;;;;15.70;7.23;;;;;;;3.96;66.29;102066.63;5067463;28;20247;-66
2021/03/05 11:02:53;;;;;;;11.27;6.87;;;;;;;4.00;66.17;102063.06;5069636;28;20205;-66
2021/03/05 11:05:19;;;;;;;8.60;6.33;;;;;;;4.03;65.72;102078.84;5071092;28;20231;-66
2021/03/05 11:07:45;;;;;;;8.80;5.83;;;;;;;4.09;66.02;102081.41;5069371;28;20236;-67
2021/03/05 11:10:12;;;;;;;9.17;6.17;;;;;;;4.16;65.91;102072.50;5068310;28;20209;-66
2021/03/05 11:12:38;;;;;;;7.97;5.63;;;;;;;4.23;65.33;102075.91;5069368;28;20700;-66
2021/03/05 11:15:05;;;;;;;6.07;5.43;;;;;;;4.30;65.06;102080.19;5071527;28;20236;-66
2021/03/05 11:17:33;;;;;;;6.83;6.10;;;;;;;4.39;64.46;102081.84;5071213;28;20220;-66
2021/03/05 11:19:59;;;;;;;8.37;5.30;;;;;;;4.47;64.51;102072.94;5070948;28;20666;-67
2021/03/05 11:22:25;;;;;;;5.63;4.93;;;;;;;4.49;63.70;102079.03;5071007;28;20211;-65
2021/03/05 11:24:51;;;;;;;8.37;4.63;;;;;;;4.48;63.57;102081.69;5071686;28;20200;-66
2021/03/05 11:27:17;;;;;;;6.60;5.20;;;;;;;4.45;62.52;102081.75;5070697;28;20251;-66
2021/03/05 11:29:43;;;;;;;7.40;5.33;;;;;;;4.41;62.01;102085.31;5070521;28;20213;-67
2021/03/05 11:32:09;;;;;;;8.30;5.60;;;;;;;4.40;62.25;102089.72;5069919;28;20501;-67
2021/03/05 11:34:36;;;;;;;7.93;5.30;;;;;;;4.45;62.03;102092.31;5070889;28;20282;-66
2021/03/05 11:37:02;;;;;;;6.47;4.73;;;;;;;4.54;61.79;102086.88;5068719;28;20204;-66
2021/03/05 11:39:28;;;;;;;7.40;4.70;;;;;;;4.64;61.62;102091.13;5069608;28;20231;-66
2021/03/05 11:41:54;;;;;;;6.47;4.97;;;;;;;4.71;61.16;102087.47;5069298;28;20237;-67